sensor_id;sensor_type;location;lat;lon;timestamp;P1;durP1;ratioP1;P2;durP2;ratioP2
72674;SDS011;60752;53.962;9.614;2023-03-25T00:25:15;9.57;;;1.60;;
72674;SDS011;60752;53.962;9.614;2023-03-25T00:55:17;6.13;;;1.90;;
72674;SDS011;60752;53.962;9.614;2023-03-25T01:25:19;7.20;;;2.67;;
72674;SDS011;60752;53.962;9.614;2023-03-25T01:55:21;5.95;;;2.60;;
72674;SDS011;60752;53.962;9.614;2023-03-25T02:56:12;8.00;;;1.83;;
72674;SDS011;60752;53.962;9.614;2023-03-25T03:26:18;5.97;;;1.40;;
72674;SDS011;60752;53.962;9.614;2023-03-25T03:56:27;6.40;;;1.87;;
72674;SDS011;60752;53.962;9.614;2023-03-25T04:26:32;8.43;;;2.25;;
72674;SDS011;60752;53.962;9.614;2023-03-25T04:56:34;5.03;;;1.77;;
72674;SDS011;60752;53.962;9.614;2023-03-25T05:26:36;3.00;;;1.10;;
72674;SDS011;60752;53.962;9.614;2023-03-25T05:56:39;2.23;;;0.80;;
72674;SDS011;60752;53.962;9.614;2023-03-25T06:26:41;2.43;;;0.80;;
72674;SDS011;60752;53.962;9.614;2023-03-25T06:56:43;7.20;;;1.73;;
72674;SDS011;60752;53.962;9.614;2023-03-25T07:26:45;8.40;;;1.83;;
72674;SDS011;60752;53.962;9.614;2023-03-25T07:56:47;7.13;;;2.20;;
72674;SDS011;60752;53.962;9.614;2023-03-25T08:26:48;5.10;;;1.03;;
72674;SDS011;60752;53.962;9.614;2023-03-25T08:56:50;5.33;;;1.27;;
72674;SDS011;60752;53.962;9.614;2023-03-25T09:26:52;4.72;;;1.63;;
72674;SDS011;60752;53.962;9.614;2023-03-25T09:56:55;9.30;;;2.20;;
72674;SDS011;60752;53.962;9.614;2023-03-25T10:27:02;8.00;;;1.47;;
72674;SDS011;60752;53.962;9.614;2023-03-25T10:57:07;6.70;;;1.43;;
72674;SDS011;60752;53.962;9.614;2023-03-25T11:27:10;1.33;;;0.50;;
72674;SDS011;60752;53.962;9.614;2023-03-25T11:57:19;2.80;;;0.90;;
72674;SDS011;60752;53.962;9.614;2023-03-25T12:27:27;4.87;;;0.90;;
72674;SDS011;60752;53.962;9.614;2023-03-25T12:57:40;2.20;;;0.80;;
72674;SDS011;60752;53.962;9.614;2023-03-25T13:27:51;2.07;;;0.70;;
72674;SDS011;60752;53.962;9.614;2023-03-25T14:28:32;2.65;;;0.80;;
72674;SDS011;60752;53.962;9.614;2023-03-25T14:58:37;4.23;;;1.10;;
72674;SDS011;60752;53.962;9.614;2023-03-25T15:28:45;5.37;;;1.10;;
72674;SDS011;60752;53.962;9.614;2023-03-25T15:59:00;4.67;;;0.83;;
72674;SDS011;60752;53.962;9.614;2023-03-25T16:29:08;4.57;;;1.47;;
72674;SDS011;60752;53.962;9.614;2023-03-25T16:59:16;7.65;;;2.10;;
72674;SDS011;60752;53.962;9.614;2023-03-25T17:29:20;5.03;;;1.03;;
72674;SDS011;60752;53.962;9.614;2023-03-25T17:59:22;5.77;;;1.20;;
72674;SDS011;60752;53.962;9.614;2023-03-25T18:29:25;5.47;;;0.90;;
72674;SDS011;60752;53.962;9.614;2023-03-25T18:59:27;9.80;;;1.97;;
72674;SDS011;60752;53.962;9.614;2023-03-25T19:29:29;10.50;;;1.88;;
72674;SDS011;60752;53.962;9.614;2023-03-25T19:59:31;10.83;;;2.70;;
72674;SDS011;60752;53.962;9.614;2023-03-25T20:29:32;10.00;;;2.23;;
72674;SDS011;60752;53.962;9.614;2023-03-25T20:59:34;12.53;;;2.80;;
72674;SDS011;60752;53.962;9.614;2023-03-25T21:29:36;11.83;;;2.60;;
72674;SDS011;60752;53.962;9.614;2023-03-25T21:59:38;14.43;;;3.08;;
72674;SDS011;60752;53.962;9.614;2023-03-25T22:29:41;11.80;;;2.37;;
72674;SDS011;60752;53.962;9.614;2023-03-25T22:59:43;14.87;;;2.63;;
72674;SDS011;60752;53.962;9.614;2023-03-25T23:29:45;9.70;;;1.80;;
72674;SDS011;60752;53.962;9.614;2023-03-25T23:59:47;8.93;;;2.23;;
